sensor_id;sensor_type;location;lat;lon;timestamp;temperature;humidity
674;DHT22;319;48.764;9.174;2022-12-29T00:01:24;11.40;95.50
674;DHT22;319;48.764;9.174;2022-12-29T00:03:50;11.40;95.60
674;DHT22;319;48.764;9.174;2022-12-29T00:06:19;11.40;95.50
674;DHT22;319;48.764;9.174;2022-12-29T00:08:45;11.40;95.40
674;DHT22;319;48.764;9.174;2022-12-29T00:11:15;11.40;95.40
674;DHT22;319;48.764;9.174;2022-12-29T00:13:42;11.50;95.40
674;DHT22;319;48.764;9.174;2022-12-29T00:16:27;11.50;95.30
674;DHT22;319;48.764;9.174;2022-12-29T00:18:55;11.50;95.20
674;DHT22;319;48.764;9.174;2022-12-29T00:21:26;11.50;95.20
674;DHT22;319;48.764;9.174;2022-12-29T00:24:13;11.70;95.30
674;DHT22;319;48.764;9.174;2022-12-29T00:27:08;11.60;95.20
674;DHT22;319;48.764;9.174;2022-12-29T00:29:53;11.60;95.10
674;DHT22;319;48.764;9.174;2022-12-29T00:32:37;11.60;95.10
674;DHT22;319;48.764;9.174;2022-12-29T00:35:25;11.70;95.10
674;DHT22;319;48.764;9.174;2022-12-29T00:37:55;11.70;94.90
674;DHT22;319;48.764;9.174;2022-12-29T00:40:40;11.70;94.90
674;DHT22;319;48.764;9.174;2022-12-29T00:43:24;11.80;95.00
674;DHT22;319;48.764;9.174;2022-12-29T00:46:08;11.80;94.80
674;DHT22;319;48.764;9.174;2022-12-29T00:48:35;11.80;95.10
674;DHT22;319;48.764;9.174;2022-12-29T00:51:19;11.80;95.00
674;DHT22;319;48.764;9.174;2022-12-29T00:53:47;11.90;94.90
674;DHT22;319;48.764;9.174;2022-12-29T00:56:14;11.90;95.00
674;DHT22;319;48.764;9.174;2022-12-29T00:58:41;11.90;94.90
674;DHT22;319;48.764;9.174;2022-12-29T01:01:08;11.90;94.90
674;DHT22;319;48.764;9.174;2022-12-29T01:03:36;11.90;94.70
674;DHT22;319;48.764;9.174;2022-12-29T01:06:05;11.90;94.60
674;DHT22;319;48.764;9.174;2022-12-29T01:08:32;11.90;94.50
674;DHT22;319;48.764;9.174;2022-12-29T01:11:01;11.90;94.50
674;DHT22;319;48.764;9.174;2022-12-29T01:13:27;12.00;94.40
674;DHT22;319;48.764;9.174;2022-12-29T01:15:54;12.10;94.30
674;DHT22;319;48.764;9.174;2022-12-29T01:18:22;12.10;94.30
674;DHT22;319;48.764;9.174;2022-12-29T01:20:48;12.10;94.30
674;DHT22;319;48.764;9.174;2022-12-29T01:23:15;12.20;94.10
674;DHT22;319;48.764;9.174;2022-12-29T01:25:42;12.20;94.10
674;DHT22;319;48.764;9.174;2022-12-29T01:28:10;12.20;94.10
674;DHT22;319;48.764;9.174;2022-12-29T01:30:37;12.20;94.10
674;DHT22;319;48.764;9.174;2022-12-29T01:33:03;12.20;94.00
674;DHT22;319;48.764;9.174;2022-12-29T01:35:30;12.20;94.00
674;DHT22;319;48.764;9.174;2022-12-29T01:37:57;12.30;94.00
674;DHT22;319;48.764;9.174;2022-12-29T01:40:24;12.30;94.20
674;DHT22;319;48.764;9.174;2022-12-29T01:42:51;12.30;93.90
674;DHT22;319;48.764;9.174;2022-12-29T01:45:20;12.30;93.90
674;DHT22;319;48.764;9.174;2022-12-29T01:47:49;12.40;94.20
674;DHT22;319;48.764;9.174;2022-12-29T01:50:19;12.40;94.00
674;DHT22;319;48.764;9.174;2022-12-29T01:52:51;12.40;94.00
674;DHT22;319;48.764;9.174;2022-12-29T01:55:20;12.40;94.00
674;DHT22;319;48.764;9.174;2022-12-29T01:57:50;12.40;93.90
674;DHT22;319;48.764;9.174;2022-12-29T02:00:19;12.40;93.90
674;DHT22;319;48.764;9.174;2022-12-29T02:02:49;12.40;93.90
674;DHT22;319;48.764;9.174;2022-12-29T02:05:23;12.40;93.90
674;DHT22;319;48.764;9.174;2022-12-29T02:07:51;12.50;94.00
674;DHT22;319;48.764;9.174;2022-12-29T02:10:20;12.50;94.00
674;DHT22;319;48.764;9.174;2022-12-29T02:12:48;12.40;93.90
674;DHT22;319;48.764;9.174;2022-12-29T02:15:15;12.40;93.80
674;DHT22;319;48.764;9.174;2022-12-29T02:17:54;12.40;93.90
674;DHT22;319;48.764;9.174;2022-12-29T02:20:56;12.40;93.90
674;DHT22;319;48.764;9.174;2022-12-29T02:23:56;12.30;94.00
674;DHT22;319;48.764;9.174;2022-12-29T02:26:47;12.30;93.80
674;DHT22;319;48.764;9.174;2022-12-29T02:29:40;12.30;93.90
674;DHT22;319;48.764;9.174;2022-12-29T02:32:19;12.20;93.90
674;DHT22;319;48.764;9.174;2022-12-29T02:34:56;12.30;94.10
674;DHT22;319;48.764;9.174;2022-12-29T02:37:26;12.20;94.10
674;DHT22;319;48.764;9.174;2022-12-29T02:40:02;12.30;94.40
674;DHT22;319;48.764;9.174;2022-12-29T02:42:36;12.30;94.10
674;DHT22;319;48.764;9.174;2022-12-29T02:45:06;12.20;93.90
674;DHT22;319;48.764;9.174;2022-12-29T02:47:40;12.30;94.00
674;DHT22;319;48.764;9.174;2022-12-29T02:50:13;12.30;94.00
674;DHT22;319;48.764;9.174;2022-12-29T02:52:45;12.30;93.90
674;DHT22;319;48.764;9.174;2022-12-29T02:55:13;12.30;93.90
674;DHT22;319;48.764;9.174;2022-12-29T02:57:38;12.30;93.80
674;DHT22;319;48.764;9.174;2022-12-29T03:00:07;12.40;93.80
674;DHT22;319;48.764;9.174;2022-12-29T03:02:47;12.30;93.80
674;DHT22;319;48.764;9.174;2022-12-29T03:05:30;12.40;93.90
674;DHT22;319;48.764;9.174;2022-12-29T03:08:06;12.50;93.80
674;DHT22;319;48.764;9.174;2022-12-29T03:10:44;12.50;93.90
674;DHT22;319;48.764;9.174;2022-12-29T03:13:23;12.50;93.80
674;DHT22;319;48.764;9.174;2022-12-29T03:16:18;12.50;93.80
674;DHT22;319;48.764;9.174;2022-12-29T03:18:55;12.50;93.80
674;DHT22;319;48.764;9.174;2022-12-29T03:21:29;12.50;93.70
674;DHT22;319;48.764;9.174;2022-12-29T03:24:12;12.50;93.60
674;DHT22;319;48.764;9.174;2022-12-29T03:26:41;12.50;93.60
674;DHT22;319;48.764;9.174;2022-12-29T03:29:09;12.50;93.70
674;DHT22;319;48.764;9.174;2022-12-29T03:31:38;12.60;93.70
674;DHT22;319;48.764;9.174;2022-12-29T03:34:07;12.60;93.60
674;DHT22;319;48.764;9.174;2022-12-29T03:36:39;12.60;93.60
674;DHT22;319;48.764;9.174;2022-12-29T03:39:10;12.60;93.60
674;DHT22;319;48.764;9.174;2022-12-29T03:41:40;12.80;94.30
674;DHT22;319;48.764;9.174;2022-12-29T03:44:08;12.60;93.60
674;DHT22;319;48.764;9.174;2022-12-29T03:46:34;12.70;93.60
674;DHT22;319;48.764;9.174;2022-12-29T03:49:02;12.70;93.70
674;DHT22;319;48.764;9.174;2022-12-29T03:51:30;12.70;93.70
674;DHT22;319;48.764;9.174;2022-12-29T03:53:56;12.80;93.70
674;DHT22;319;48.764;9.174;2022-12-29T03:56:23;12.90;93.70
674;DHT22;319;48.764;9.174;2022-12-29T03:58:50;12.90;93.70
674;DHT22;319;48.764;9.174;2022-12-29T04:01:16;13.00;93.80
674;DHT22;319;48.764;9.174;2022-12-29T04:03:43;13.00;93.80
674;DHT22;319;48.764;9.174;2022-12-29T04:06:10;13.00;93.80
674;DHT22;319;48.764;9.174;2022-12-29T04:08:38;12.90;93.70
674;DHT22;319;48.764;9.174;2022-12-29T04:11:05;12.90;93.70
674;DHT22;319;48.764;9.174;2022-12-29T04:13:32;12.90;93.80
674;DHT22;319;48.764;9.174;2022-12-29T04:15:58;12.90;93.90
674;DHT22;319;48.764;9.174;2022-12-29T04:18:25;12.80;94.00
674;DHT22;319;48.764;9.174;2022-12-29T04:20:52;12.80;94.20
674;DHT22;319;48.764;9.174;2022-12-29T04:23:30;12.70;94.30
674;DHT22;319;48.764;9.174;2022-12-29T04:25:58;12.80;94.40
674;DHT22;319;48.764;9.174;2022-12-29T04:28:26;12.80;94.50
674;DHT22;319;48.764;9.174;2022-12-29T04:30:52;12.70;94.50
674;DHT22;319;48.764;9.174;2022-12-29T04:33:19;12.70;94.60
674;DHT22;319;48.764;9.174;2022-12-29T04:35:46;12.60;94.80
674;DHT22;319;48.764;9.174;2022-12-29T04:38:14;12.70;94.90
674;DHT22;319;48.764;9.174;2022-12-29T04:40:42;12.70;95.00
674;DHT22;319;48.764;9.174;2022-12-29T04:43:11;12.70;95.10
674;DHT22;319;48.764;9.174;2022-12-29T04:45:39;12.70;95.20
674;DHT22;319;48.764;9.174;2022-12-29T04:48:09;12.60;95.30
674;DHT22;319;48.764;9.174;2022-12-29T04:50:35;12.60;95.60
674;DHT22;319;48.764;9.174;2022-12-29T04:53:02;12.70;95.40
674;DHT22;319;48.764;9.174;2022-12-29T04:55:29;12.70;95.50
674;DHT22;319;48.764;9.174;2022-12-29T04:57:57;12.70;95.50
674;DHT22;319;48.764;9.174;2022-12-29T05:00:25;12.70;95.60
674;DHT22;319;48.764;9.174;2022-12-29T05:02:52;12.80;95.60
674;DHT22;319;48.764;9.174;2022-12-29T05:05:19;12.80;95.60
674;DHT22;319;48.764;9.174;2022-12-29T05:07:45;12.80;95.60
674;DHT22;319;48.764;9.174;2022-12-29T05:10:12;12.80;95.60
674;DHT22;319;48.764;9.174;2022-12-29T05:12:39;12.90;95.60
674;DHT22;319;48.764;9.174;2022-12-29T05:15:07;12.90;95.60
674;DHT22;319;48.764;9.174;2022-12-29T05:17:37;12.80;95.50
674;DHT22;319;48.764;9.174;2022-12-29T05:20:04;12.80;95.70
674;DHT22;319;48.764;9.174;2022-12-29T05:22:31;12.80;95.90
674;DHT22;319;48.764;9.174;2022-12-29T05:24:58;12.70;95.80
674;DHT22;319;48.764;9.174;2022-12-29T05:27:25;12.70;95.80
674;DHT22;319;48.764;9.174;2022-12-29T05:29:52;12.70;95.80
674;DHT22;319;48.764;9.174;2022-12-29T05:32:18;12.70;95.80
674;DHT22;319;48.764;9.174;2022-12-29T05:34:46;12.70;95.80
674;DHT22;319;48.764;9.174;2022-12-29T05:37:13;12.60;95.90
674;DHT22;319;48.764;9.174;2022-12-29T05:39:40;12.60;96.00
674;DHT22;319;48.764;9.174;2022-12-29T05:42:07;12.60;96.00
674;DHT22;319;48.764;9.174;2022-12-29T05:44:34;12.60;96.10
674;DHT22;319;48.764;9.174;2022-12-29T05:47:00;12.60;96.10
674;DHT22;319;48.764;9.174;2022-12-29T05:49:27;12.60;96.10
674;DHT22;319;48.764;9.174;2022-12-29T05:51:55;12.60;96.00
674;DHT22;319;48.764;9.174;2022-12-29T05:54:22;12.60;96.40
674;DHT22;319;48.764;9.174;2022-12-29T05:56:49;12.60;95.90
674;DHT22;319;48.764;9.174;2022-12-29T05:59:15;12.70;95.90
674;DHT22;319;48.764;9.174;2022-12-29T06:01:42;12.70;95.80
674;DHT22;319;48.764;9.174;2022-12-29T06:04:09;12.80;95.70
674;DHT22;319;48.764;9.174;2022-12-29T06:06:35;12.80;95.60
674;DHT22;319;48.764;9.174;2022-12-29T06:09:03;12.80;95.60
674;DHT22;319;48.764;9.174;2022-12-29T06:11:30;12.80;95.60
674;DHT22;319;48.764;9.174;2022-12-29T06:13:57;12.80;95.40
674;DHT22;319;48.764;9.174;2022-12-29T06:16:24;12.80;95.40
674;DHT22;319;48.764;9.174;2022-12-29T06:18:51;12.80;95.40
674;DHT22;319;48.764;9.174;2022-12-29T06:21:17;12.80;95.30
674;DHT22;319;48.764;9.174;2022-12-29T06:23:44;12.70;95.30
674;DHT22;319;48.764;9.174;2022-12-29T06:26:12;12.80;95.40
674;DHT22;319;48.764;9.174;2022-12-29T06:28:39;12.70;95.40
674;DHT22;319;48.764;9.174;2022-12-29T06:31:09;12.70;95.40
674;DHT22;319;48.764;9.174;2022-12-29T06:33:35;12.70;95.40
674;DHT22;319;48.764;9.174;2022-12-29T06:36:02;12.70;95.20
674;DHT22;319;48.764;9.174;2022-12-29T06:38:29;12.60;95.20
674;DHT22;319;48.764;9.174;2022-12-29T06:40:56;12.60;95.00
674;DHT22;319;48.764;9.174;2022-12-29T06:43:24;12.50;95.10
674;DHT22;319;48.764;9.174;2022-12-29T06:45:51;12.40;95.10
674;DHT22;319;48.764;9.174;2022-12-29T06:48:17;12.40;95.10
674;DHT22;319;48.764;9.174;2022-12-29T06:50:44;12.40;95.10
674;DHT22;319;48.764;9.174;2022-12-29T06:53:11;12.40;95.00
674;DHT22;319;48.764;9.174;2022-12-29T06:55:38;12.30;94.90
674;DHT22;319;48.764;9.174;2022-12-29T06:58:04;12.30;94.90
674;DHT22;319;48.764;9.174;2022-12-29T07:00:32;12.30;95.00
674;DHT22;319;48.764;9.174;2022-12-29T07:03:00;12.30;95.00
674;DHT22;319;48.764;9.174;2022-12-29T07:05:27;12.20;94.90
674;DHT22;319;48.764;9.174;2022-12-29T07:07:54;12.30;94.90
674;DHT22;319;48.764;9.174;2022-12-29T07:10:21;12.30;94.90
674;DHT22;319;48.764;9.174;2022-12-29T07:12:48;12.20;94.80
674;DHT22;319;48.764;9.174;2022-12-29T07:15:15;12.30;94.90
674;DHT22;319;48.764;9.174;2022-12-29T07:17:44;12.30;94.90
674;DHT22;319;48.764;9.174;2022-12-29T07:20:10;12.30;94.90
674;DHT22;319;48.764;9.174;2022-12-29T07:22:37;12.20;94.90
674;DHT22;319;48.764;9.174;2022-12-29T07:25:04;12.20;95.00
674;DHT22;319;48.764;9.174;2022-12-29T07:27:31;12.20;95.00
674;DHT22;319;48.764;9.174;2022-12-29T07:29:58;12.20;95.00
674;DHT22;319;48.764;9.174;2022-12-29T07:32:25;12.20;95.00
674;DHT22;319;48.764;9.174;2022-12-29T07:34:53;12.20;95.00
674;DHT22;319;48.764;9.174;2022-12-29T07:37:19;12.20;95.00
674;DHT22;319;48.764;9.174;2022-12-29T07:39:46;12.20;95.10
674;DHT22;319;48.764;9.174;2022-12-29T07:42:13;12.20;95.00
674;DHT22;319;48.764;9.174;2022-12-29T07:44:39;12.20;95.00
674;DHT22;319;48.764;9.174;2022-12-29T07:47:06;12.20;95.10
674;DHT22;319;48.764;9.174;2022-12-29T07:49:33;12.20;95.10
674;DHT22;319;48.764;9.174;2022-12-29T07:52:01;12.30;95.20
674;DHT22;319;48.764;9.174;2022-12-29T07:54:28;12.30;95.20
674;DHT22;319;48.764;9.174;2022-12-29T07:56:54;12.30;95.20
674;DHT22;319;48.764;9.174;2022-12-29T07:59:23;12.40;95.20
674;DHT22;319;48.764;9.174;2022-12-29T08:01:49;12.40;95.20
674;DHT22;319;48.764;9.174;2022-12-29T08:04:16;12.50;95.20
674;DHT22;319;48.764;9.174;2022-12-29T08:06:43;12.50;95.00
674;DHT22;319;48.764;9.174;2022-12-29T08:09:12;12.60;95.00
674;DHT22;319;48.764;9.174;2022-12-29T08:11:39;12.50;96.10
674;DHT22;319;48.764;9.174;2022-12-29T08:14:08;12.60;95.00
674;DHT22;319;48.764;9.174;2022-12-29T08:16:41;12.60;94.90
674;DHT22;319;48.764;9.174;2022-12-29T08:19:16;12.70;95.00
674;DHT22;319;48.764;9.174;2022-12-29T08:21:42;12.70;94.90
674;DHT22;319;48.764;9.174;2022-12-29T08:24:09;12.80;94.90
674;DHT22;319;48.764;9.174;2022-12-29T08:26:38;12.90;94.90
674;DHT22;319;48.764;9.174;2022-12-29T08:29:04;12.90;94.90
674;DHT22;319;48.764;9.174;2022-12-29T08:31:31;13.00;94.80
674;DHT22;319;48.764;9.174;2022-12-29T08:33:59;13.00;94.80
674;DHT22;319;48.764;9.174;2022-12-29T08:36:26;13.10;94.70
674;DHT22;319;48.764;9.174;2022-12-29T08:38:53;13.10;94.70
674;DHT22;319;48.764;9.174;2022-12-29T08:41:20;13.20;94.60
674;DHT22;319;48.764;9.174;2022-12-29T08:43:48;13.20;94.50
674;DHT22;319;48.764;9.174;2022-12-29T08:46:15;13.20;94.90
674;DHT22;319;48.764;9.174;2022-12-29T08:48:43;13.20;94.60
674;DHT22;319;48.764;9.174;2022-12-29T08:51:09;13.10;94.60
674;DHT22;319;48.764;9.174;2022-12-29T08:53:36;13.20;94.60
674;DHT22;319;48.764;9.174;2022-12-29T08:56:04;13.10;94.50
674;DHT22;319;48.764;9.174;2022-12-29T08:58:31;13.20;94.50
674;DHT22;319;48.764;9.174;2022-12-29T09:00:59;13.20;94.50
674;DHT22;319;48.764;9.174;2022-12-29T09:03:26;13.20;94.40
674;DHT22;319;48.764;9.174;2022-12-29T09:05:54;13.20;94.40
674;DHT22;319;48.764;9.174;2022-12-29T09:08:21;13.20;94.30
674;DHT22;319;48.764;9.174;2022-12-29T09:10:48;13.30;94.30
674;DHT22;319;48.764;9.174;2022-12-29T09:13:16;13.30;94.30
674;DHT22;319;48.764;9.174;2022-12-29T09:15:42;13.30;94.20
674;DHT22;319;48.764;9.174;2022-12-29T09:18:11;13.40;94.20
674;DHT22;319;48.764;9.174;2022-12-29T09:20:38;13.40;94.10
674;DHT22;319;48.764;9.174;2022-12-29T09:23:05;13.50;94.00
674;DHT22;319;48.764;9.174;2022-12-29T09:25:32;13.60;93.90
674;DHT22;319;48.764;9.174;2022-12-29T09:27:59;13.70;93.70
674;DHT22;319;48.764;9.174;2022-12-29T09:30:29;13.70;93.60
674;DHT22;319;48.764;9.174;2022-12-29T09:32:56;13.80;93.60
674;DHT22;319;48.764;9.174;2022-12-29T09:35:24;13.80;93.50
674;DHT22;319;48.764;9.174;2022-12-29T09:37:50;13.80;93.40
674;DHT22;319;48.764;9.174;2022-12-29T09:40:25;13.90;93.30
674;DHT22;319;48.764;9.174;2022-12-29T09:43:07;13.90;93.20
674;DHT22;319;48.764;9.174;2022-12-29T09:45:42;13.90;93.20
674;DHT22;319;48.764;9.174;2022-12-29T09:48:15;13.90;93.20
674;DHT22;319;48.764;9.174;2022-12-29T09:50:47;14.00;93.30
674;DHT22;319;48.764;9.174;2022-12-29T09:53:21;14.00;93.20
674;DHT22;319;48.764;9.174;2022-12-29T09:55:53;14.10;93.10
674;DHT22;319;48.764;9.174;2022-12-29T09:58:24;14.50;93.40
674;DHT22;319;48.764;9.174;2022-12-29T10:00:56;14.30;93.00
674;DHT22;319;48.764;9.174;2022-12-29T10:03:27;14.40;92.80
674;DHT22;319;48.764;9.174;2022-12-29T10:06:07;14.40;93.10
674;DHT22;319;48.764;9.174;2022-12-29T10:08:39;14.40;92.90
674;DHT22;319;48.764;9.174;2022-12-29T10:11:13;14.40;93.00
674;DHT22;319;48.764;9.174;2022-12-29T10:13:52;14.50;93.00
674;DHT22;319;48.764;9.174;2022-12-29T10:16:26;14.60;93.30
674;DHT22;319;48.764;9.174;2022-12-29T10:19:06;14.60;92.80
674;DHT22;319;48.764;9.174;2022-12-29T10:21:46;14.70;92.80
674;DHT22;319;48.764;9.174;2022-12-29T10:24:19;14.70;92.80
674;DHT22;319;48.764;9.174;2022-12-29T10:26:48;14.80;92.80
674;DHT22;319;48.764;9.174;2022-12-29T10:29:19;14.80;92.70
674;DHT22;319;48.764;9.174;2022-12-29T10:31:49;14.80;92.80
674;DHT22;319;48.764;9.174;2022-12-29T10:34:23;14.80;92.80
674;DHT22;319;48.764;9.174;2022-12-29T10:36:57;14.80;92.80
674;DHT22;319;48.764;9.174;2022-12-29T10:39:30;14.90;92.90
674;DHT22;319;48.764;9.174;2022-12-29T10:42:33;14.90;92.80
674;DHT22;319;48.764;9.174;2022-12-29T10:45:11;14.90;93.00
674;DHT22;319;48.764;9.174;2022-12-29T10:47:52;15.00;92.80
674;DHT22;319;48.764;9.174;2022-12-29T10:50:20;15.20;92.60
674;DHT22;319;48.764;9.174;2022-12-29T10:52:50;15.40;92.50
674;DHT22;319;48.764;9.174;2022-12-29T10:55:22;15.60;92.20
674;DHT22;319;48.764;9.174;2022-12-29T10:57:50;15.70;92.00
674;DHT22;319;48.764;9.174;2022-12-29T11:00:19;16.00;91.90
674;DHT22;319;48.764;9.174;2022-12-29T11:03:10;16.00;91.40
674;DHT22;319;48.764;9.174;2022-12-29T11:05:41;16.00;91.20
674;DHT22;319;48.764;9.174;2022-12-29T11:08:16;16.10;91.20
674;DHT22;319;48.764;9.174;2022-12-29T11:10:45;16.10;91.10
674;DHT22;319;48.764;9.174;2022-12-29T11:13:17;16.00;91.10
674;DHT22;319;48.764;9.174;2022-12-29T11:15:47;16.00;91.00
674;DHT22;319;48.764;9.174;2022-12-29T11:18:20;16.10;91.00
674;DHT22;319;48.764;9.174;2022-12-29T11:20:48;15.80;91.00
674;DHT22;319;48.764;9.174;2022-12-29T11:23:26;15.70;91.50
674;DHT22;319;48.764;9.174;2022-12-29T11:26:22;15.60;91.70
674;DHT22;319;48.764;9.174;2022-12-29T11:31:47;15.50;91.90
674;DHT22;319;48.764;9.174;2022-12-29T11:34:17;15.50;91.90
674;DHT22;319;48.764;9.174;2022-12-29T11:40:26;15.70;91.90
674;DHT22;319;48.764;9.174;2022-12-29T11:42:55;15.40;92.90
674;DHT22;319;48.764;9.174;2022-12-29T11:45:24;15.30;93.50
674;DHT22;319;48.764;9.174;2022-12-29T11:51:06;14.80;95.40
674;DHT22;319;48.764;9.174;2022-12-29T12:04:35;14.40;96.50
674;DHT22;319;48.764;9.174;2022-12-29T12:07:09;14.40;96.80
674;DHT22;319;48.764;9.174;2022-12-29T12:09:42;14.50;97.20
674;DHT22;319;48.764;9.174;2022-12-29T12:12:20;14.70;96.60
674;DHT22;319;48.764;9.174;2022-12-29T12:14:53;14.60;96.00
674;DHT22;319;48.764;9.174;2022-12-29T12:17:28;14.50;96.00
674;DHT22;319;48.764;9.174;2022-12-29T12:20:14;14.60;96.30
674;DHT22;319;48.764;9.174;2022-12-29T12:22:46;14.60;95.90
674;DHT22;319;48.764;9.174;2022-12-29T12:25:18;14.60;95.70
674;DHT22;319;48.764;9.174;2022-12-29T12:27:51;14.60;95.70
674;DHT22;319;48.764;9.174;2022-12-29T12:30:20;14.60;95.60
674;DHT22;319;48.764;9.174;2022-12-29T12:32:52;14.60;95.50
674;DHT22;319;48.764;9.174;2022-12-29T12:35:29;14.60;95.70
674;DHT22;319;48.764;9.174;2022-12-29T12:38:15;14.60;95.70
674;DHT22;319;48.764;9.174;2022-12-29T12:40:58;14.80;95.60
674;DHT22;319;48.764;9.174;2022-12-29T12:43:36;14.80;96.10
674;DHT22;319;48.764;9.174;2022-12-29T12:49:13;14.40;97.50
674;DHT22;319;48.764;9.174;2022-12-29T12:51:50;14.30;98.10
674;DHT22;319;48.764;9.174;2022-12-29T12:54:32;14.10;98.30
674;DHT22;319;48.764;9.174;2022-12-29T12:57:10;14.10;98.60
674;DHT22;319;48.764;9.174;2022-12-29T12:59:49;14.10;98.70
674;DHT22;319;48.764;9.174;2022-12-29T13:02:34;14.10;98.60
674;DHT22;319;48.764;9.174;2022-12-29T13:05:16;14.20;98.50
674;DHT22;319;48.764;9.174;2022-12-29T13:07:53;14.20;98.60
674;DHT22;319;48.764;9.174;2022-12-29T13:10:34;14.20;98.80
674;DHT22;319;48.764;9.174;2022-12-29T13:13:20;14.10;98.80
674;DHT22;319;48.764;9.174;2022-12-29T13:15:56;14.20;98.70
674;DHT22;319;48.764;9.174;2022-12-29T13:18:33;14.10;98.80
674;DHT22;319;48.764;9.174;2022-12-29T13:21:09;14.10;98.60
674;DHT22;319;48.764;9.174;2022-12-29T13:23:44;14.10;98.60
674;DHT22;319;48.764;9.174;2022-12-29T13:26:16;14.20;98.50
674;DHT22;319;48.764;9.174;2022-12-29T13:28:52;14.30;98.40
674;DHT22;319;48.764;9.174;2022-12-29T13:31:27;14.30;98.20
674;DHT22;319;48.764;9.174;2022-12-29T13:34:00;14.30;98.20
674;DHT22;319;48.764;9.174;2022-12-29T13:36:36;14.30;98.20
674;DHT22;319;48.764;9.174;2022-12-29T13:39:10;14.30;98.20
674;DHT22;319;48.764;9.174;2022-12-29T13:41:41;14.20;98.10
674;DHT22;319;48.764;9.174;2022-12-29T13:44:15;14.20;98.20
674;DHT22;319;48.764;9.174;2022-12-29T13:46:44;14.30;98.40
674;DHT22;319;48.764;9.174;2022-12-29T13:49:15;14.30;98.30
674;DHT22;319;48.764;9.174;2022-12-29T13:51:48;14.20;98.10
674;DHT22;319;48.764;9.174;2022-12-29T13:54:30;14.20;98.20
674;DHT22;319;48.764;9.174;2022-12-29T13:57:06;14.20;98.40
674;DHT22;319;48.764;9.174;2022-12-29T13:59:43;14.20;98.70
674;DHT22;319;48.764;9.174;2022-12-29T14:02:19;14.20;98.70
674;DHT22;319;48.764;9.174;2022-12-29T14:04:59;14.20;98.60
674;DHT22;319;48.764;9.174;2022-12-29T14:07:26;14.30;98.60
674;DHT22;319;48.764;9.174;2022-12-29T14:09:56;14.30;98.80
674;DHT22;319;48.764;9.174;2022-12-29T14:12:35;14.30;98.70
674;DHT22;319;48.764;9.174;2022-12-29T14:15:05;14.30;98.50
674;DHT22;319;48.764;9.174;2022-12-29T14:17:33;14.30;98.50
674;DHT22;319;48.764;9.174;2022-12-29T14:19:59;14.30;98.50
674;DHT22;319;48.764;9.174;2022-12-29T14:22:27;14.30;98.60
674;DHT22;319;48.764;9.174;2022-12-29T14:24:55;14.40;98.60
674;DHT22;319;48.764;9.174;2022-12-29T14:30:48;14.20;98.60
674;DHT22;319;48.764;9.174;2022-12-29T14:33:16;14.20;98.80
674;DHT22;319;48.764;9.174;2022-12-29T14:35:45;14.20;98.90
674;DHT22;319;48.764;9.174;2022-12-29T14:38:18;14.20;98.90
674;DHT22;319;48.764;9.174;2022-12-29T14:40:47;14.00;98.90
674;DHT22;319;48.764;9.174;2022-12-29T14:43:20;14.00;99.00
674;DHT22;319;48.764;9.174;2022-12-29T14:45:54;14.00;99.00
674;DHT22;319;48.764;9.174;2022-12-29T14:48:36;14.00;99.10
674;DHT22;319;48.764;9.174;2022-12-29T14:51:25;14.00;99.10
674;DHT22;319;48.764;9.174;2022-12-29T14:53:54;14.00;99.20
674;DHT22;319;48.764;9.174;2022-12-29T14:56:26;14.00;99.10
674;DHT22;319;48.764;9.174;2022-12-29T14:58:56;14.00;99.10
674;DHT22;319;48.764;9.174;2022-12-29T15:01:29;14.00;99.00
674;DHT22;319;48.764;9.174;2022-12-29T15:04:05;13.90;98.90
674;DHT22;319;48.764;9.174;2022-12-29T15:06:36;13.90;99.10
674;DHT22;319;48.764;9.174;2022-12-29T15:09:15;13.80;98.90
674;DHT22;319;48.764;9.174;2022-12-29T15:11:49;13.70;98.90
674;DHT22;319;48.764;9.174;2022-12-29T15:14:32;13.70;98.90
674;DHT22;319;48.764;9.174;2022-12-29T15:17:01;13.70;98.90
674;DHT22;319;48.764;9.174;2022-12-29T15:19:28;13.70;98.80
674;DHT22;319;48.764;9.174;2022-12-29T15:21:55;13.60;98.80
674;DHT22;319;48.764;9.174;2022-12-29T15:24:24;13.60;98.90
674;DHT22;319;48.764;9.174;2022-12-29T15:26:53;13.50;98.90
674;DHT22;319;48.764;9.174;2022-12-29T15:29:37;13.50;98.80
674;DHT22;319;48.764;9.174;2022-12-29T15:32:17;13.50;98.90
674;DHT22;319;48.764;9.174;2022-12-29T15:34:45;13.50;98.80
674;DHT22;319;48.764;9.174;2022-12-29T15:37:18;13.40;98.70
674;DHT22;319;48.764;9.174;2022-12-29T15:39:45;13.50;98.90
674;DHT22;319;48.764;9.174;2022-12-29T15:42:27;13.50;98.80
674;DHT22;319;48.764;9.174;2022-12-29T15:44:56;13.40;98.70
674;DHT22;319;48.764;9.174;2022-12-29T15:47:24;13.40;98.80
674;DHT22;319;48.764;9.174;2022-12-29T15:49:59;13.40;98.90
674;DHT22;319;48.764;9.174;2022-12-29T15:52:27;13.50;98.80
674;DHT22;319;48.764;9.174;2022-12-29T15:54:54;13.50;98.80
674;DHT22;319;48.764;9.174;2022-12-29T15:57:24;13.60;98.70
674;DHT22;319;48.764;9.174;2022-12-29T15:59:51;13.60;98.60
674;DHT22;319;48.764;9.174;2022-12-29T16:02:19;13.70;98.60
674;DHT22;319;48.764;9.174;2022-12-29T16:04:47;13.80;98.70
674;DHT22;319;48.764;9.174;2022-12-29T16:07:26;13.60;99.40
674;DHT22;319;48.764;9.174;2022-12-29T16:09:55;13.40;99.90
674;DHT22;319;48.764;9.174;2022-12-29T16:12:28;13.30;99.90
674;DHT22;319;48.764;9.174;2022-12-29T16:14:58;13.10;99.90
674;DHT22;319;48.764;9.174;2022-12-29T16:17:28;13.00;99.90
674;DHT22;319;48.764;9.174;2022-12-29T16:19:57;12.90;99.90
674;DHT22;319;48.764;9.174;2022-12-29T16:22:29;12.80;99.90
674;DHT22;319;48.764;9.174;2022-12-29T16:24:58;12.70;99.90
674;DHT22;319;48.764;9.174;2022-12-29T16:27:32;12.60;99.90
674;DHT22;319;48.764;9.174;2022-12-29T16:30:05;12.50;99.90
674;DHT22;319;48.764;9.174;2022-12-29T16:32:33;12.50;99.90
674;DHT22;319;48.764;9.174;2022-12-29T16:35:12;12.50;99.90
674;DHT22;319;48.764;9.174;2022-12-29T16:37:39;12.40;99.90
674;DHT22;319;48.764;9.174;2022-12-29T16:40:29;12.30;99.90
674;DHT22;319;48.764;9.174;2022-12-29T16:43:01;12.40;99.90
674;DHT22;319;48.764;9.174;2022-12-29T16:48:35;12.30;99.90
674;DHT22;319;48.764;9.174;2022-12-29T16:51:04;12.20;99.90
674;DHT22;319;48.764;9.174;2022-12-29T16:53:34;12.20;99.90
674;DHT22;319;48.764;9.174;2022-12-29T16:56:07;12.20;99.90
674;DHT22;319;48.764;9.174;2022-12-29T16:58:36;12.10;99.90
674;DHT22;319;48.764;9.174;2022-12-29T17:01:05;12.10;99.90
674;DHT22;319;48.764;9.174;2022-12-29T17:03:41;12.10;99.90
674;DHT22;319;48.764;9.174;2022-12-29T17:06:10;12.10;99.90
674;DHT22;319;48.764;9.174;2022-12-29T17:08:41;12.00;99.90
674;DHT22;319;48.764;9.174;2022-12-29T17:11:22;11.90;99.90
674;DHT22;319;48.764;9.174;2022-12-29T17:14:19;11.90;99.90
674;DHT22;319;48.764;9.174;2022-12-29T17:16:47;11.90;99.90
674;DHT22;319;48.764;9.174;2022-12-29T17:19:16;11.90;99.90
674;DHT22;319;48.764;9.174;2022-12-29T17:21:43;11.80;99.90
674;DHT22;319;48.764;9.174;2022-12-29T17:24:15;11.70;99.90
674;DHT22;319;48.764;9.174;2022-12-29T17:26:44;11.70;99.90
674;DHT22;319;48.764;9.174;2022-12-29T17:29:17;11.70;99.90
674;DHT22;319;48.764;9.174;2022-12-29T17:31:46;11.60;99.90